Schofield Barracks, Hawaii
Current Conditions -  °F | °C
As of 11:35 AM on Monday 24 Nov 2014 (Local Time) from PHHI Reporting Station
Broken Clouds Broken Clouds  
Wind Chill: 68°   Ceiling: 1300
Heat Index: 68°   Visibility: 10mi
Dew Point: 64°   Wind: 12mph
Humidity: 88%   Direction: 320°NW
Pressure: 29.95"   Gusts: NA
Location:  21.5°N, 158.06°W
Report Text: PHHI 242135Z AUTO 32010KT 10SM SCT008 BKN013 20/18 A2995 RMK AO2 RAE2058DZB2102E2117 CIG 011V050 $
Loading
Personal Weather Stations






























Interactive Weather Map New forecast layout! Learn more

10-Day Weather Forecast

Advertisements
Track Severe Weather on mobile